Time;durP1;ratioP1;P1;durP2;ratioP2;P2;SDS_P1;SDS_P2;PMS_P1;PMS_P2;Temp;Humidity;BMP_temperature;BMP_pressure;BME280_temperature;BME280_humidity;BME280_pressure;Samples;Min_cycle;Max_cycle;Signal;HPM_P1;HPM_P2
2022/10/13 00:00:46;;;;;;;10.90;6.70;;;7.50;99.90;;;;;;5050664;28;20207;-84
2022/10/13 00:03:14;;;;;;;13.57;6.77;;;7.40;99.90;;;;;;5044100;28;20215;-84
2022/10/13 00:05:42;;;;;;;12.00;5.80;;;7.40;99.90;;;;;;5057015;28;20199;-84
2022/10/13 00:08:09;;;;;;;9.93;6.17;;;6.90;99.90;;;;;;5040035;28;20223;-86
2022/10/13 00:10:39;;;;;;;9.13;6.10;;;6.60;99.90;;;;;;5053226;28;20195;-85
2022/10/13 00:13:07;;;;;;;14.70;7.00;;;6.50;99.90;;;;;;5026702;28;20216;-84
2022/10/13 00:15:38;;;;;;;13.87;7.60;;;6.50;99.90;;;;;;5050653;28;20209;-84
2022/10/13 00:18:05;;;;;;;13.77;7.10;;;6.50;99.90;;;;;;5056030;28;20245;-84
2022/10/13 00:20:32;;;;;;;10.47;6.27;;;6.70;99.90;;;;;;5055828;28;20211;-85
2022/10/13 00:22:59;;;;;;;10.63;6.13;;;6.70;99.90;;;;;;5056655;28;20206;-84
2022/10/13 00:25:26;;;;;;;10.53;6.63;;;6.60;99.90;;;;;;5055077;28;20199;-83
2022/10/13 00:27:54;;;;;;;12.30;7.00;;;6.50;99.90;;;;;;5044605;28;20234;-85
2022/10/13 00:30:21;;;;;;;12.90;6.83;;;6.50;99.90;;;;;;5046602;28;20313;-84
2022/10/13 00:32:48;;;;;;;10.93;6.47;;;6.80;99.90;;;;;;5019829;28;20203;-83
2022/10/13 00:35:14;;;;;;;11.60;6.63;;;6.90;99.90;;;;;;5042240;28;20211;-84
2022/10/13 00:37:41;;;;;;;12.07;6.13;;;7.00;99.90;;;;;;5059911;28;20748;-83
2022/10/13 00:40:09;;;;;;;9.77;6.50;;;7.10;99.90;;;;;;5057665;28;20203;-84
2022/10/13 00:42:36;;;;;;;12.03;6.50;;;7.20;99.90;;;;;;5049399;28;20200;-85
2022/10/13 00:45:07;;;;;;;12.70;6.90;;;7.30;99.90;;;;;;5056285;28;20210;-84
2022/10/13 00:47:38;;;;;;;10.27;6.50;;;7.40;99.90;;;;;;5058330;28;20245;-84
2022/10/13 00:50:07;;;;;;;10.27;6.23;;;7.30;99.90;;;;;;5058696;28;20313;-83
2022/10/13 00:52:36;;;;;;;8.87;5.83;;;7.10;99.90;;;;;;5056148;28;20203;-85
2022/10/13 00:55:05;;;;;;;12.07;6.43;;;7.10;99.90;;;;;;5058831;28;20199;-84
2022/10/13 00:57:32;;;;;;;10.53;6.57;;;7.20;99.90;;;;;;5029145;28;20228;-85
2022/10/13 01:00:02;;;;;;;12.50;7.00;;;7.40;99.90;;;;;;5053511;28;20196;-85
2022/10/13 01:02:35;;;;;;;8.87;6.23;;;7.50;99.90;;;;;;5037899;28;20192;-85
2022/10/13 01:05:03;;;;;;;11.70;6.50;;;7.60;99.90;;;;;;5036992;28;20644;-85
2022/10/13 01:07:31;;;;;;;11.40;6.60;;;7.50;99.90;;;;;;5042708;28;20227;-85
2022/10/13 01:09:59;;;;;;;12.73;7.00;;;7.50;99.90;;;;;;5035255;28;20758;-83
2022/10/13 01:12:36;;;;;;;13.07;6.83;;;7.40;99.90;;;;;;5029705;28;20204;-83
2022/10/13 01:15:10;;;;;;;11.90;7.03;;;7.40;99.90;;;;;;5024888;28;20207;-84
2022/10/13 01:17:48;;;;;;;10.70;6.57;;;7.30;99.90;;;;;;5032390;28;20219;-85
2022/10/13 01:20:49;;;;;;;14.07;7.90;;;7.50;99.90;;;;;;5032495;28;20208;-83
2022/10/13 01:23:30;;;;;;;11.07;7.03;;;7.60;99.90;;;;;;5017511;28;20209;-85
2022/10/13 01:26:23;;;;;;;12.80;7.03;;;7.70;99.90;;;;;;5018616;28;20204;-83
2022/10/13 01:29:08;;;;;;;10.10;6.53;;;7.80;99.90;;;;;;5029001;28;20603;-86
2022/10/13 01:31:43;;;;;;;10.50;6.37;;;7.90;99.90;;;;;;5039625;28;20210;-82
2022/10/13 01:34:18;;;;;;;13.27;6.70;;;8.10;99.90;;;;;;5035487;28;20200;-83
2022/10/13 01:36:52;;;;;;;7.80;5.63;;;8.10;99.90;;;;;;5041128;28;20266;-82
2022/10/13 01:39:24;;;;;;;8.33;5.80;;;8.00;99.90;;;;;;5038555;28;20211;-82
2022/10/13 01:41:55;;;;;;;10.93;5.80;;;7.90;99.90;;;;;;5040661;28;20195;-82
2022/10/13 01:44:26;;;;;;;9.80;5.77;;;7.90;99.90;;;;;;5049400;28;20213;-82
2022/10/13 01:46:55;;;;;;;11.07;6.50;;;7.90;99.90;;;;;;5056082;28;20710;-83
2022/10/13 01:49:27;;;;;;;11.57;6.83;;;8.10;99.90;;;;;;5058883;28;20222;-82
2022/10/13 01:51:55;;;;;;;12.33;6.27;;;7.90;99.90;;;;;;5037390;28;20307;-82
2022/10/13 01:54:22;;;;;;;9.20;6.00;;;8.10;99.90;;;;;;5045242;28;20202;-83
2022/10/13 01:56:53;;;;;;;8.07;5.50;;;8.10;99.90;;;;;;5050603;28;20233;-83
2022/10/13 01:59:20;;;;;;;10.73;5.77;;;8.10;99.90;;;;;;5055541;28;20198;-84
2022/10/13 02:02:03;;;;;;;9.90;6.30;;;8.10;99.90;;;;;;5038092;28;20195;-82
2022/10/13 02:04:42;;;;;;;11.37;6.30;;;8.10;99.90;;;;;;5040743;28;20198;-82
2022/10/13 02:07:17;;;;;;;9.50;5.83;;;8.10;99.90;;;;;;5026517;28;20573;-83
2022/10/13 02:09:54;;;;;;;8.90;5.63;;;8.00;99.90;;;;;;5056068;28;20234;-84
2022/10/13 02:12:27;;;;;;;13.97;7.20;;;8.10;99.90;;;;;;5031016;28;20206;-83
2022/10/13 02:14:57;;;;;;;12.30;6.60;;;8.10;99.90;;;;;;5051407;28;20231;-82
2022/10/13 02:17:26;;;;;;;13.83;6.70;;;8.30;99.90;;;;;;5030943;28;20223;-83
2022/10/13 02:19:54;;;;;;;12.73;6.67;;;8.30;99.90;;;;;;5036001;28;20203;-84
2022/10/13 02:22:24;;;;;;;14.33;7.60;;;8.30;99.90;;;;;;5036152;28;20658;-83
2022/10/13 02:24:51;;;;;;;12.80;6.83;;;8.30;99.90;;;;;;5056334;28;20695;-83
2022/10/13 02:27:18;;;;;;;13.90;7.33;;;8.30;99.90;;;;;;5033987;28;20963;-83
2022/10/13 02:29:52;;;;;;;11.20;6.50;;;8.30;99.90;;;;;;5052766;28;20853;-82
2022/10/13 02:32:18;;;;;;;12.90;7.13;;;8.10;99.90;;;;;;5053463;28;20196;-82
2022/10/13 02:34:47;;;;;;;12.23;7.33;;;8.10;99.90;;;;;;5057596;28;20219;-82
2022/10/13 02:37:14;;;;;;;13.73;7.77;;;8.20;99.90;;;;;;5042290;28;20712;-83
2022/10/13 02:39:40;;;;;;;13.43;7.57;;;8.20;99.90;;;;;;5049875;28;20248;-83
2022/10/13 02:42:07;;;;;;;14.63;7.77;;;8.30;99.90;;;;;;5036725;28;20291;-83
2022/10/13 02:44:34;;;;;;;14.17;7.20;;;8.00;99.90;;;;;;5029181;28;20210;-84
2022/10/13 02:47:01;;;;;;;15.00;7.43;;;8.20;99.90;;;;;;5032703;28;20305;-83
2022/10/13 02:49:28;;;;;;;14.43;7.77;;;8.10;99.90;;;;;;5056019;28;20207;-82
2022/10/13 02:51:56;;;;;;;12.13;7.50;;;8.10;99.90;;;;;;5032780;28;20562;-82
2022/10/13 02:54:23;;;;;;;14.07;8.03;;;8.10;99.90;;;;;;5060244;28;20207;-83
2022/10/13 02:56:50;;;;;;;14.03;7.70;;;8.00;99.90;;;;;;5050967;28;20219;-83
2022/10/13 02:59:16;;;;;;;13.43;6.80;;;7.90;99.90;;;;;;5061140;28;20204;-84
2022/10/13 03:01:44;;;;;;;10.80;7.10;;;7.80;99.90;;;;;;5044848;28;20295;-83
2022/10/13 03:04:11;;;;;;;13.10;7.50;;;7.70;99.90;;;;;;5057392;28;20201;-84
2022/10/13 03:06:38;;;;;;;11.80;6.33;;;7.60;99.90;;;;;;5036183;28;20295;-83
2022/10/13 03:09:06;;;;;;;12.23;7.10;;;7.60;99.90;;;;;;5019607;28;20656;-84
2022/10/13 03:11:33;;;;;;;16.23;6.90;;;7.60;99.90;;;;;;5036840;28;20200;-83
2022/10/13 03:14:00;;;;;;;13.10;6.87;;;7.50;99.90;;;;;;5022189;28;20208;-83
2022/10/13 03:16:27;;;;;;;12.63;7.13;;;7.60;99.90;;;;;;5041891;28;20207;-82
2022/10/13 03:18:54;;;;;;;11.17;6.73;;;7.50;99.90;;;;;;5055342;28;20209;-86
2022/10/13 03:21:20;;;;;;;8.30;5.60;;;7.60;99.90;;;;;;5052881;28;20622;-83
2022/10/13 03:23:47;;;;;;;6.50;5.17;;;7.60;99.90;;;;;;5037987;28;20233;-82
2022/10/13 03:26:15;;;;;;;7.80;6.17;;;7.50;99.90;;;;;;5041567;28;20282;-83
2022/10/13 03:28:42;;;;;;;10.03;6.40;;;7.40;99.90;;;;;;5038605;28;20221;-83
2022/10/13 03:31:12;;;;;;;10.23;5.80;;;7.20;99.90;;;;;;5046803;28;20248;-84
2022/10/13 03:33:40;;;;;;;11.90;7.30;;;7.30;99.90;;;;;;5040593;28;20199;-85
2022/10/13 03:36:07;;;;;;;17.50;10.20;;;7.40;99.90;;;;;;5040921;28;20209;-84
2022/10/13 03:38:35;;;;;;;12.20;7.57;;;7.60;99.90;;;;;;5041166;28;20249;-84
2022/10/13 03:41:06;;;;;;;11.17;6.90;;;7.70;99.90;;;;;;5039822;28;20207;-85
2022/10/13 03:43:34;;;;;;;11.47;6.97;;;7.80;99.90;;;;;;5025212;28;20299;-84
2022/10/13 03:46:02;;;;;;;12.70;7.80;;;7.80;99.90;;;;;;5021269;28;20219;-84
2022/10/13 03:48:30;;;;;;;14.90;7.53;;;7.90;99.90;;;;;;5019852;28;20228;-84
2022/10/13 03:50:57;;;;;;;18.77;8.87;;;7.90;99.90;;;;;;5020780;28;20251;-85
2022/10/13 03:53:24;;;;;;;13.87;7.67;;;8.10;99.90;;;;;;5019281;28;20207;-85
2022/10/13 03:55:52;;;;;;;13.77;7.07;;;8.20;99.90;;;;;;5020321;28;20200;-84
2022/10/13 03:58:19;;;;;;;13.97;7.33;;;8.10;99.90;;;;;;5019832;28;20224;-83
2022/10/13 04:00:48;;;;;;;12.73;7.27;;;8.10;99.90;;;;;;5015866;28;20666;-84
2022/10/13 04:03:16;;;;;;;17.27;8.17;;;8.20;99.90;;;;;;5017193;28;20214;-84
2022/10/13 04:05:42;;;;;;;12.20;7.27;;;8.10;99.90;;;;;;5016806;28;20208;-84
2022/10/13 04:08:10;;;;;;;13.90;7.27;;;8.20;99.90;;;;;;5037830;28;20224;-84
2022/10/13 04:10:37;;;;;;;18.23;8.17;;;8.00;99.90;;;;;;5037198;28;20634;-85
2022/10/13 04:13:04;;;;;;;17.70;8.90;;;8.00;99.90;;;;;;5028313;28;20230;-84
2022/10/13 04:15:31;;;;;;;16.23;7.63;;;8.00;99.90;;;;;;5035925;28;20207;-85
2022/10/13 04:17:59;;;;;;;12.03;7.47;;;8.00;99.90;;;;;;5038111;28;20615;-85
2022/10/13 04:20:26;;;;;;;13.20;7.83;;;8.00;99.90;;;;;;5035377;28;20210;-83
2022/10/13 04:22:53;;;;;;;13.00;7.63;;;8.00;99.90;;;;;;5019381;28;20220;-84
2022/10/13 04:25:19;;;;;;;13.17;8.07;;;8.00;99.90;;;;;;5019033;28;20216;-85
2022/10/13 04:27:47;;;;;;;11.37;6.93;;;8.00;99.90;;;;;;5018485;28;20242;-84
2022/10/13 04:30:14;;;;;;;14.63;7.57;;;7.80;99.90;;;;;;5017029;28;20220;-85
2022/10/13 04:32:41;;;;;;;23.90;21.50;;;7.80;99.90;;;;;;5015722;28;20207;-84
2022/10/13 04:35:09;;;;;;;12.73;7.80;;;7.90;99.90;;;;;;5017415;28;20664;-84
2022/10/13 04:37:36;;;;;;;17.77;9.10;;;7.90;99.90;;;;;;5017349;28;20243;-84
2022/10/13 04:40:03;;;;;;;13.53;7.80;;;8.00;99.90;;;;;;5018233;28;20215;-84
2022/10/13 04:42:30;;;;;;;15.80;8.47;;;8.10;99.90;;;;;;5017809;28;20192;-84
2022/10/13 04:44:57;;;;;;;16.40;9.43;;;8.20;99.90;;;;;;5017627;28;20291;-84
2022/10/13 04:47:23;;;;;;;12.67;8.00;;;8.20;99.90;;;;;;5018796;28;20239;-84
2022/10/13 04:49:50;;;;;;;18.63;8.33;;;8.20;99.90;;;;;;5019784;28;20220;-85
2022/10/13 04:52:18;;;;;;;12.27;7.73;;;8.20;99.90;;;;;;5019495;28;20287;-84
2022/10/13 04:54:45;;;;;;;13.40;8.23;;;8.30;99.90;;;;;;5019777;28;20231;-84
2022/10/13 04:57:12;;;;;;;14.07;8.03;;;8.10;99.90;;;;;;5018621;28;20230;-84
2022/10/13 04:59:39;;;;;;;13.03;7.20;;;8.00;99.90;;;;;;5019226;28;20210;-86
2022/10/13 05:02:05;;;;;;;14.20;7.60;;;7.80;99.90;;;;;;5019137;28;20268;-84
2022/10/13 05:04:32;;;;;;;16.00;7.90;;;7.70;99.90;;;;;;5019233;28;20653;-84
2022/10/13 05:06:59;;;;;;;13.30;7.80;;;7.60;99.90;;;;;;5019052;28;20693;-84
2022/10/13 05:09:27;;;;;;;14.20;8.00;;;7.60;99.90;;;;;;5018805;28;20215;-84
2022/10/13 05:11:54;;;;;;;13.70;8.17;;;7.70;99.90;;;;;;5018742;28;20232;-85
2022/10/13 05:14:21;;;;;;;15.90;8.93;;;7.80;99.90;;;;;;5018819;28;20246;-84
2022/10/13 05:16:48;;;;;;;12.67;8.07;;;7.80;99.90;;;;;;5018488;28;20278;-84
2022/10/13 05:19:15;;;;;;;16.53;8.73;;;7.90;99.90;;;;;;5018805;28;20218;-84
2022/10/13 05:21:42;;;;;;;14.87;8.53;;;7.90;99.90;;;;;;5018400;28;20200;-84
2022/10/13 05:24:12;;;;;;;17.83;9.80;;;8.00;99.90;;;;;;5017948;28;20211;-84
2022/10/13 05:26:40;;;;;;;18.73;10.27;;;8.00;99.90;;;;;;5019005;28;20223;-84
2022/10/13 05:29:08;;;;;;;19.80;10.97;;;8.10;99.90;;;;;;5017663;28;20212;-84
2022/10/13 05:31:35;;;;;;;20.47;9.60;;;8.10;99.90;;;;;;5017469;28;20226;-84
2022/10/13 05:34:03;;;;;;;22.50;11.50;;;8.20;99.90;;;;;;5017049;28;20215;-84
2022/10/13 05:36:32;;;;;;;20.03;11.23;;;8.20;99.90;;;;;;5017803;28;20674;-83
2022/10/13 05:39:01;;;;;;;21.07;11.93;;;8.20;99.90;;;;;;5017975;28;20287;-84
2022/10/13 05:41:29;;;;;;;20.07;12.00;;;8.30;99.90;;;;;;5017396;28;20207;-84
2022/10/13 05:44:00;;;;;;;17.37;11.07;;;8.10;99.90;;;;;;5018402;28;20656;-84
2022/10/13 05:46:27;;;;;;;21.00;11.70;;;8.30;99.90;;;;;;5018103;28;20191;-83
2022/10/13 05:48:54;;;;;;;22.93;11.27;;;8.30;99.90;;;;;;5017502;28;20304;-84
2022/10/13 05:51:24;;;;;;;18.80;11.27;;;8.20;99.90;;;;;;5013522;28;20708;-84
2022/10/13 05:53:58;;;;;;;23.17;14.07;;;8.30;99.90;;;;;;5013550;28;20200;-84
2022/10/13 05:56:30;;;;;;;23.07;11.23;;;8.30;99.90;;;;;;5014081;28;20264;-84
2022/10/13 05:59:02;;;;;;;18.57;11.50;;;8.30;99.90;;;;;;5013983;28;20207;-84
2022/10/13 06:01:33;;;;;;;21.60;12.53;;;8.30;99.90;;;;;;5013946;28;20189;-84
2022/10/13 06:04:04;;;;;;;16.67;9.97;;;8.30;99.90;;;;;;5013884;28;20195;-84
2022/10/13 06:06:31;;;;;;;21.33;11.90;;;8.30;99.90;;;;;;5013961;28;20196;-85
2022/10/13 06:08:58;;;;;;;21.50;12.67;;;8.50;99.90;;;;;;5031630;28;20199;-84
2022/10/13 06:11:25;;;;;;;22.30;13.03;;;8.50;99.90;;;;;;5027277;28;20323;-84
2022/10/13 06:13:52;;;;;;;23.00;12.83;;;8.60;99.90;;;;;;5033192;28;20192;-84
2022/10/13 06:16:20;;;;;;;21.97;10.60;;;8.70;99.90;;;;;;5033523;28;20216;-84
2022/10/13 06:18:47;;;;;;;23.50;11.93;;;8.70;99.90;;;;;;5033316;28;20258;-85
2022/10/13 06:21:13;;;;;;;20.97;11.37;;;8.80;99.90;;;;;;5031464;28;20204;-84
2022/10/13 06:23:40;;;;;;;22.97;12.20;;;9.00;99.90;;;;;;5034045;28;20211;-84
2022/10/13 06:26:08;;;;;;;19.67;12.10;;;8.90;99.90;;;;;;5032753;28;20211;-84
2022/10/13 06:28:35;;;;;;;21.70;11.80;;;9.10;99.90;;;;;;5037005;28;20704;-84
2022/10/13 06:31:05;;;;;;;26.10;13.43;;;9.20;99.90;;;;;;5036506;28;20223;-85
2022/10/13 06:33:34;;;;;;;21.60;12.83;;;9.30;99.90;;;;;;5038006;28;20672;-85
2022/10/13 06:36:03;;;;;;;24.27;13.87;;;9.30;99.90;;;;;;5037578;28;20206;-84
2022/10/13 06:38:29;;;;;;;22.33;12.70;;;9.30;99.90;;;;;;5036970;28;20653;-84
2022/10/13 06:41:00;;;;;;;21.40;12.27;;;9.50;99.90;;;;;;5036647;28;20659;-84
2022/10/13 06:43:26;;;;;;;21.27;11.63;;;9.50;99.90;;;;;;5036055;28;20203;-85
2022/10/13 06:45:53;;;;;;;23.93;12.73;;;9.50;99.90;;;;;;5033894;28;20199;-84
2022/10/13 06:48:20;;;;;;;23.33;11.87;;;9.50;99.90;;;;;;5036129;28;20215;-84
2022/10/13 06:50:48;;;;;;;22.23;11.83;;;9.60;99.90;;;;;;5036492;28;20216;-84
2022/10/13 06:53:15;;;;;;;21.50;12.00;;;9.60;99.90;;;;;;5036450;28;20349;-84
2022/10/13 06:55:42;;;;;;;22.70;11.80;;;9.80;99.90;;;;;;5036744;28;20675;-84
2022/10/13 06:58:09;;;;;;;20.73;11.83;;;9.80;99.90;;;;;;5035892;28;20323;-85
2022/10/13 07:00:36;;;;;;;20.63;11.57;;;9.80;99.90;;;;;;5036066;28;20214;-84
2022/10/13 07:03:03;;;;;;;26.87;13.47;;;9.90;99.90;;;;;;5037011;28;20216;-83
2022/10/13 07:05:30;;;;;;;20.73;12.10;;;10.00;99.90;;;;;;5037448;28;20226;-84
2022/10/13 07:07:59;;;;;;;21.30;12.07;;;10.10;99.90;;;;;;5036495;28;20321;-84
2022/10/13 07:10:25;;;;;;;20.67;11.37;;;10.20;99.90;;;;;;5034688;28;20211;-84
2022/10/13 07:12:52;;;;;;;21.70;12.53;;;10.20;99.90;;;;;;5035320;28;20200;-84
2022/10/13 07:15:19;;;;;;;22.00;12.10;;;10.30;99.90;;;;;;5035815;28;20566;-84
2022/10/13 07:17:46;;;;;;;20.97;12.07;;;10.30;99.90;;;;;;5035488;28;20234;-84
2022/10/13 07:20:12;;;;;;;20.00;11.23;;;10.30;99.90;;;;;;5036099;28;20214;-84
2022/10/13 07:22:39;;;;;;;21.67;12.17;;;10.40;99.90;;;;;;5035299;28;20199;-83
2022/10/13 07:25:09;;;;;;;19.37;11.40;;;10.30;99.90;;;;;;5036664;28;20215;-84
2022/10/13 07:27:37;;;;;;;20.20;12.40;;;10.50;99.90;;;;;;5035132;28;20227;-84
2022/10/13 07:30:04;;;;;;;22.93;12.43;;;10.70;99.90;;;;;;5035858;28;20756;-84
2022/10/13 07:32:32;;;;;;;22.07;12.33;;;10.70;99.90;;;;;;5035509;28;20238;-85
2022/10/13 07:34:59;;;;;;;21.30;12.10;;;10.80;99.90;;;;;;5036268;28;20656;-84
2022/10/13 07:37:25;;;;;;;23.23;12.13;;;10.90;99.90;;;;;;5035878;28;20341;-84
2022/10/13 07:39:52;;;;;;;20.60;10.87;;;10.90;99.90;;;;;;5036727;28;20211;-84
2022/10/13 07:42:20;;;;;;;22.37;11.60;;;10.90;99.90;;;;;;5035785;28;20203;-84
2022/10/13 07:44:47;;;;;;;21.53;11.20;;;10.90;99.90;;;;;;5036501;28;20211;-84
2022/10/13 07:47:14;;;;;;;21.00;10.80;;;11.10;99.90;;;;;;5035735;28;20310;-84
2022/10/13 07:49:41;;;;;;;18.93;10.57;;;11.10;99.90;;;;;;5036581;28;20556;-84
2022/10/13 07:52:08;;;;;;;18.90;11.10;;;11.40;99.90;;;;;;5036991;28;20591;-84
2022/10/13 07:54:34;;;;;;;19.63;11.43;;;11.60;99.90;;;;;;5037354;28;20204;-84
2022/10/13 07:57:02;;;;;;;20.17;11.57;;;11.90;99.90;;;;;;5038889;28;20233;-84
2022/10/13 07:59:32;;;;;;;17.60;9.80;;;12.00;99.90;;;;;;5037475;28;20200;-84
2022/10/13 08:01:59;;;;;;;19.57;11.30;;;12.10;99.90;;;;;;5035834;28;20198;-84
2022/10/13 08:04:29;;;;;;;22.90;11.23;;;12.20;99.90;;;;;;5037368;28;20230;-84
2022/10/13 08:06:56;;;;;;;18.33;10.67;;;12.20;99.90;;;;;;5037352;28;20225;-85
2022/10/13 08:09:22;;;;;;;20.40;10.57;;;12.30;99.90;;;;;;5037256;28;20191;-85
2022/10/13 08:11:49;;;;;;;20.87;11.23;;;12.40;99.90;;;;;;5036717;28;20219;-85
2022/10/13 08:14:16;;;;;;;17.97;10.27;;;12.40;99.90;;;;;;5034868;28;20218;-83
2022/10/13 08:16:45;;;;;;;18.30;9.73;;;12.60;99.90;;;;;;5035960;28;20238;-84
2022/10/13 08:19:12;;;;;;;20.93;9.73;;;12.70;99.90;;;;;;5035638;28;20644;-84
2022/10/13 08:21:39;;;;;;;18.43;9.63;;;12.80;99.90;;;;;;5035903;28;20204;-85
2022/10/13 08:24:06;;;;;;;18.37;10.23;;;12.80;99.90;;;;;;5036994;28;20207;-84
2022/10/13 08:26:33;;;;;;;16.57;9.60;;;13.00;99.90;;;;;;5036328;28;20210;-84
2022/10/13 08:29:00;;;;;;;19.30;9.20;;;13.00;99.90;;;;;;5036791;28;20195;-84
2022/10/13 08:31:27;;;;;;;16.00;8.77;;;13.10;99.90;;;;;;5036664;28;20238;-85
2022/10/13 08:33:55;;;;;;;12.97;8.27;;;13.00;99.90;;;;;;5036258;28;20196;-84
2022/10/13 08:36:21;;;;;;;15.47;8.70;;;13.10;99.90;;;;;;5036866;28;20282;-84
2022/10/13 08:38:48;;;;;;;14.77;8.90;;;13.30;99.90;;;;;;5037772;28;20230;-84
2022/10/13 08:41:17;;;;;;;16.83;9.17;;;13.30;99.90;;;;;;5036383;28;20207;-85
2022/10/13 08:43:49;;;;;;;18.03;8.67;;;13.30;99.90;;;;;;5036086;28;20196;-84
2022/10/13 08:46:19;;;;;;;17.03;9.00;;;13.50;99.90;;;;;;5036685;28;20737;-84
2022/10/13 08:48:46;;;;;;;15.70;8.10;;;13.80;99.90;;;;;;5035172;28;20224;-85
2022/10/13 08:51:16;;;;;;;15.50;8.17;;;13.80;99.90;;;;;;5036751;28;20225;-85
2022/10/13 08:53:45;;;;;;;14.97;9.00;;;14.00;99.90;;;;;;5035840;28;20200;-84
2022/10/13 08:56:18;;;;;;;12.57;7.83;;;14.20;99.90;;;;;;5034094;28;20204;-85
2022/10/13 08:58:46;;;;;;;14.57;7.47;;;14.30;99.90;;;;;;5035923;28;20224;-85
2022/10/13 09:01:15;;;;;;;13.23;8.07;;;14.30;99.90;;;;;;5035467;28;20220;-85
2022/10/13 09:03:50;;;;;;;16.90;8.47;;;14.40;99.90;;;;;;5034390;28;20204;-85
2022/10/13 09:06:26;;;;;;;13.57;7.40;;;14.40;99.90;;;;;;5026845;28;20656;-84
2022/10/13 09:08:56;;;;;;;13.73;7.80;;;14.40;99.90;;;;;;5015424;28;20238;-85
2022/10/13 09:11:26;;;;;;;12.70;7.67;;;14.30;99.90;;;;;;5014731;28;20219;-84
2022/10/13 09:13:58;;;;;;;10.90;7.03;;;14.40;99.90;;;;;;5037632;28;20698;-84
2022/10/13 09:16:33;;;;;;;17.50;7.03;;;14.10;99.90;;;;;;5017855;28;20258;-84
2022/10/13 09:19:19;;;;;;;15.77;7.83;;;13.90;99.90;;;;;;5015230;28;20184;-84
2022/10/13 09:21:48;;;;;;;15.07;8.20;;;14.10;99.90;;;;;;5015545;28;20200;-84
2022/10/13 09:24:16;;;;;;;12.20;7.33;;;14.10;99.90;;;;;;5014894;28;20212;-85
2022/10/13 09:26:44;;;;;;;13.57;8.03;;;14.00;99.90;;;;;;5015888;28;20224;-84
2022/10/13 09:29:17;;;;;;;11.53;7.30;;;14.20;99.90;;;;;;5015483;28;20295;-84
2022/10/13 09:31:44;;;;;;;13.47;6.83;;;14.30;99.90;;;;;;5049267;28;20223;-84
2022/10/13 09:34:16;;;;;;;11.20;7.17;;;14.30;99.90;;;;;;5035768;28;20670;-84
2022/10/13 09:37:01;;;;;;;14.30;7.27;;;14.40;99.90;;;;;;5038741;28;20323;-85
2022/10/13 09:39:29;;;;;;;13.57;7.23;;;14.70;99.90;;;;;;5025354;28;20210;-85
2022/10/13 09:42:19;;;;;;;13.73;7.30;;;15.00;99.90;;;;;;5031563;28;20204;-84
2022/10/13 09:44:47;;;;;;;16.20;7.60;;;15.40;99.90;;;;;;5034939;28;20310;-85
2022/10/13 09:47:20;;;;;;;12.33;7.30;;;15.80;99.90;;;;;;5036510;28;20241;-84
2022/10/13 09:49:59;;;;;;;12.65;7.10;;;16.20;25.10;;;;;;5035948;28;20210;-85
2022/10/13 09:52:28;;;;;;;12.43;6.93;;;16.40;1.00;;;;;;5019951;28;20231;-85
2022/10/13 09:54:57;;;;;;;11.02;6.57;;;16.50;1.00;;;;;;5015422;28;20228;-84
2022/10/13 09:57:31;;;;;;;12.73;7.13;;;16.40;1.00;;;;;;5016207;28;20234;-85
2022/10/13 10:00:06;;;;;;;10.23;7.00;;;16.50;99.90;;;;;;5013275;28;20212;-85
2022/10/13 10:02:37;;;;;;;12.65;6.32;;;16.10;99.90;;;;;;5017702;28;20195;-84
2022/10/13 10:05:14;;;;;;;9.63;7.07;;;16.10;99.90;;;;;;5018516;28;20256;-85
2022/10/13 10:07:42;;;;;;;12.73;6.80;;;15.80;1.00;;;;;;5018925;28;20696;-84
2022/10/13 10:10:22;;;;;;;11.15;6.32;;;16.00;1.00;;;;;;5036105;28;20214;-84
2022/10/13 10:12:49;;;;;;;11.82;6.70;;;16.00;1.00;;;;;;5038533;28;20322;-84
2022/10/13 10:15:21;;;;;;;12.43;6.72;;;15.90;90.80;;;;;;5038602;28;20702;-84
2022/10/13 10:17:54;;;;;;;11.43;6.05;;;15.90;99.90;;;;;;5039209;28;20228;-85
2022/10/13 10:20:39;;;;;;;10.02;6.07;;;16.20;99.90;;;;;;5038014;28;20226;-85
2022/10/13 10:23:14;;;;;;;11.68;5.72;;;16.50;1.00;;;;;;5000114;28;1086996;-84
2022/10/13 10:25:44;;;;;;;12.00;5.88;;;16.80;1.00;;;;;;5040342;28;20183;-84
2022/10/13 10:28:42;;;;;;;9.65;5.32;;;17.10;99.90;;;;;;5023970;28;20234;-84
2022/10/13 10:31:20;;;;;;;12.18;5.90;;;17.40;99.90;;;;;;4991217;28;20215;-86
2022/10/13 10:33:58;;;;;;;12.20;6.25;;;17.50;1.00;;;;;;5020089;28;20199;-85
2022/10/13 10:36:40;;;;;;;7.90;5.38;;;17.40;1.00;;;;;;5021369;28;20196;-85
2022/10/13 10:39:19;;;;;;;9.23;5.53;;;17.20;99.90;;;;;;5022606;28;20246;-85
2022/10/13 10:41:53;;;;;;;9.13;5.63;;;17.50;1.00;;;;;;5019089;28;20196;-84
2022/10/13 10:44:26;;;;;;;10.73;5.70;;;17.40;1.00;;;;;;5021368;28;20216;-85
2022/10/13 10:46:57;;;;;;;11.35;5.60;;;17.40;1.00;;;;;;5019810;28;20216;-85
2022/10/13 10:49:30;;;;;;;12.88;5.60;;;17.50;1.00;;;;;;5019769;28;20177;-85
2022/10/13 10:51:57;;;;;;;11.35;6.20;;;17.70;99.90;;;;;;5018551;28;20334;-85
2022/10/13 10:54:37;;;;;;;10.52;6.18;;;17.60;99.90;;;;;;5020514;28;20212;-85
2022/10/13 10:57:12;;;;;;;9.30;5.90;;;17.40;1.00;;;;;;5019583;28;20235;-85
2022/10/13 10:59:48;;;;;;;8.88;6.15;;;17.30;1.00;;;;;;5020180;28;20591;-85
2022/10/13 11:02:40;;;;;;;11.10;5.97;;;17.30;1.00;;;;;;5020322;28;20544;-85
2022/10/13 11:05:06;;;;;;;9.63;6.00;;;17.40;1.00;;;;;;5019548;28;20207;-85
2022/10/13 11:07:59;;;;;;;10.18;6.15;;;17.70;99.90;;;;;;5019017;28;20224;-85
2022/10/13 11:10:29;;;;;;;8.82;6.13;;;17.50;99.90;;;;;;5017596;28;20552;-86
2022/10/13 11:13:18;;;;;;;9.60;5.90;;;17.70;47.00;;;;;;5017165;28;20263;-86
2022/10/13 11:15:46;;;;;;;11.32;6.30;;;18.10;1.00;;;;;;5017043;28;20228;-87
2022/10/13 11:18:55;;;;;;;8.73;6.45;;;18.20;1.00;;;;;;5015819;28;20575;-85
2022/10/13 11:21:22;;;;;;;11.60;6.65;;;18.20;1.00;;;;;;5014949;28;20181;-84
2022/10/13 11:23:50;;;;;;;10.05;6.38;;;18.30;99.90;;;;;;5016361;28;20226;-85
2022/10/13 11:26:42;;;;;;;9.43;5.82;;;18.60;99.90;;;;;;5018296;28;20652;-86
2022/10/13 11:29:18;;;;;;;12.02;5.70;;;19.00;99.90;;;;;;5015425;28;20239;-85
2022/10/13 11:31:53;;;;;;;7.93;5.22;;;19.10;1.40;;;;;;5017072;28;20231;-85
2022/10/13 11:34:28;;;;;;;8.65;4.82;;;19.40;1.00;;;;;;5017065;28;20593;-85
2022/10/13 11:36:57;;;;;;;8.23;4.53;;;19.30;1.00;;;;;;5017978;28;20274;-85
2022/10/13 11:39:58;;;;;;;8.10;4.97;;;19.50;1.00;;;;;;5017406;28;20211;-85
2022/10/13 11:43:09;;;;;;;10.68;5.32;;;20.00;1.00;;;;;;5038098;28;20200;-85
2022/10/13 11:45:53;;;;;;;7.97;4.90;;;19.80;1.00;;;;;;5037022;28;20210;-85
2022/10/13 11:49:11;;;;;;;8.48;4.35;;;19.50;99.90;;;;;;5035837;28;20236;-85
2022/10/13 11:51:56;;;;;;;6.45;4.18;;;19.50;99.90;;;;;;5037262;28;20208;-85
2022/10/13 11:54:28;;;;;;;7.50;4.82;;;19.70;99.90;;;;;;5040141;28;20569;-86
2022/10/13 11:56:57;;;;;;;7.18;4.55;;;19.80;99.90;;;;;;5040238;28;20234;-85
2022/10/13 11:59:29;;;;;;;6.18;4.18;;;19.90;99.90;;;;;;5037174;28;20221;-84
2022/10/13 12:01:58;;;;;;;5.45;4.00;;;20.10;99.90;;;;;;5041350;28;20206;-86
2022/10/13 12:04:27;;;;;;;8.13;5.22;;;19.80;99.90;;;;;;5038943;28;20222;-85
2022/10/13 12:06:59;;;;;;;7.85;4.22;;;19.80;99.90;;;;;;5037740;28;20216;-86
2022/10/13 12:09:27;;;;;;;6.50;4.25;;;19.80;99.90;;;;;;5032789;28;20214;-85
2022/10/13 12:11:58;;;;;;;7.03;4.63;;;19.60;99.90;;;;;;5025479;28;20448;-84
2022/10/13 12:14:31;;;;;;;7.25;4.18;;;19.00;99.90;;;;;;5018183;28;20246;-85
2022/10/13 12:17:00;;;;;;;9.63;4.70;;;19.10;99.90;;;;;;5040048;28;20277;-84
2022/10/13 12:19:29;;;;;;;8.35;4.15;;;19.20;99.90;;;;;;5042514;28;20196;-85
2022/10/13 12:21:58;;;;;;;7.22;4.47;;;19.20;99.90;;;;;;5030613;28;20239;-85
2022/10/13 12:24:26;;;;;;;8.18;4.82;;;19.40;1.00;;;;;;5022658;28;20212;-85
2022/10/13 12:26:54;;;;;;;7.45;4.22;;;19.30;71.90;;;;;;5021905;28;20296;-85
2022/10/13 12:29:24;;;;;;;8.85;4.60;;;19.20;60.70;;;;;;5020538;28;20231;-85
2022/10/13 12:31:53;;;;;;;8.65;4.75;;;20.30;1.00;;;;;;5018485;28;20212;-84
2022/10/13 12:34:23;;;;;;;7.75;4.45;;;20.90;1.00;;;;;;5022566;28;20224;-85
2022/10/13 12:36:59;;;;;;;9.15;4.82;;;19.90;1.00;;;;;;5021229;28;20288;-86
2022/10/13 12:39:28;;;;;;;10.32;5.18;;;20.20;1.00;;;;;;5021150;28;20222;-84
2022/10/13 12:41:55;;;;;;;8.55;5.30;;;19.40;1.00;;;;;;5021323;28;20214;-85
2022/10/13 12:44:24;;;;;;;10.68;5.43;;;19.40;1.00;;;;;;5020270;28;20200;-85
2022/10/13 12:46:55;;;;;;;9.02;5.35;;;19.30;15.50;;;;;;5018650;28;20232;-83
2022/10/13 12:49:23;;;;;;;9.95;5.38;;;19.40;99.90;;;;;;5022593;28;20213;-85
2022/10/13 12:51:54;;;;;;;8.05;5.30;;;19.20;31.20;;;;;;5021771;28;20204;-85
2022/10/13 12:54:27;;;;;;;9.25;4.93;;;19.00;83.90;;;;;;5021919;28;20236;-85
2022/10/13 12:56:57;;;;;;;10.30;4.70;;;18.90;90.30;;;;;;5039546;28;20227;-84
2022/10/13 12:59:27;;;;;;;6.80;4.50;;;18.80;99.90;;;;;;5037497;28;20215;-86